Friday, March 27, 2015
19:11 UTC
  |  Log In   |  Register Free
Airport Search:

Julian Carroll Airport
(KJKL)

Julian Carroll Airport Diagram
No Airport Diagram Available

FAA data valid effective March 05, 2015 - April 30, 2015 (unless otherwise noted).

 
 
 
 
 
 
 
 
 
 
 
 
 
 

Current Aviation Weather for Julian Carroll Airport (KJKL)

The most recent METAR observation for KJKL was updated at: 1410
METAR Summary (Translated METAR)
KJKL
251353Z AUTO VRB05KT 10SM SCT065 BKN090 17/07 A3010 RMK AO2 SLP186 T01670072
KSJS
251355Z AUTO 19010KT 10SM CLR 18/09 A3009 RMK AO2 T01750086
(33.7 nm NE from KJKL)
KPBX
251355Z AUTO 16005KT 10SM CLR 16/08 A3011 RMK AO2 T01620081
(35.8 nm SE from KJKL)
TAF Summary (Translated TAF)
KJKL
251136Z 2512/2612 VRB03KT P6SM SCT050 WS010/21035KT FM251400 22007G15KT P6SM BKN050 FM260000 VRB05KT P6SM SCT050 FM260900 18005KT P6SM VCSH BKN050
KSJS
(33.7 nm NE from KJKL)
251136Z 2512/2612 VRB03KT P6SM SCT050 WS012/21035KT FM251400 22007G15KT P6SM BKN050 FM260000 VRB03KT P6SM SCT050 FM261000 18005KT P6SM VCSH BKN050
  Airport Weather Conditions for KJKL

 Current Weather at JKL
45° F
Mostly Cloudy
Variable winds at 3.5 mph
JKL NOAA Radar

Pressure: 29.90 in
Humidity: 48%
Wind: Variable at 3.5 MPH (3 KT)
Dew Point: 26.1°F
Visibility: 10.00 mi


Airport Weather Forecast for KJKL

Translated METAR and TAF for KJKL
Translated METAR for KJKL (1910 UTC 27 March 2015)
found at http://aviationweather.gov/adds/metars/
 
METAR text: KJKL 271853Z AUTO VRB05KT 10SM BKN049 BKN060 OVC080 07/M05 A2989 RMK AO2 SLP124 T00671050
Conditions at: KJKL (NOCTOR/JACKSON , KY, US) observed 1853 UTC 27 March 2015
Temperature: 6.7°C (44°F)
Dewpoint: -5.0°C (23°F) [RH = 43%]
Pressure (altimeter): 29.89 inches Hg (1012.3 mb)
[Sea-level pressure: 1012.4 mb]
Winds: variable direction winds at 6 MPH (5 knots; 2.6 m/s)
Visibility: 10 or more miles (16+ km)
Ceiling: 4900 feet AGL
Clouds: broken clouds at 4900 feet AGL
broken clouds at 6000 feet AGL
overcast cloud deck at 8000 feet AGL
Weather: automated observation with no human augmentation;
there may or may not be significant weather present at this time
Translated TAF for KJKL
Forecast for: KJKL (NOCTOR/JACKSON , KY, US)
TAF Text: KJKL 271726Z 2718/2818 32006KT P6SM BKN040
Forecast period: 1800 to 2000 UTC 27 March 2015
Forecast type: FROM: standard forecast or significant change
Winds: from the NW (320 degrees) at 7 MPH (6 knots; 3.1 m/s)
Visibility: 6 or more miles (10+ km)
Ceiling: 4000 feet AGL
Clouds: broken clouds at 4000 feet AGL
Weather: no significant weather forecast for this period
TAF Text: FM272000 33005KT P6SM VCSH BKN030
Forecast period: 2000 UTC 27 March 2015 to 0200 UTC 28 March 2015
Forecast type: FROM: standard forecast or significant change
Winds: from the NNW (330 degrees) at 6 MPH (5 knots; 2.6 m/s)
Visibility: 6 or more miles (10+ km)
Ceiling: 3000 feet AGL
Clouds: broken clouds at 3000 feet AGL
Weather: VCSH  (showers in vicinity)
TAF Text: FM280200 33004KT P6SM SCT035
Forecast period: 0200 to 1800 UTC 28 March 2015
Forecast type: FROM: standard forecast or significant change
Winds: from the NNW (330 degrees) at 5 MPH (4 knots; 2.1 m/s)
Visibility: 6 or more miles (10+ km)
Clouds: scattered clouds at 3500 feet AGL
Weather: no significant weather forecast for this period

Find All Airport Services Find A Hotel Find A Rental Car Find A Golf Course Find A Restaurant $100 Hamburger



FBO's on the Field
FBO Company Facility Photos Services Transportation Aviation Fuel Prices: Prices include tax
Catering Weather Repair Courtesy Rental Type 100LL JetA JetA+ MOGAS 8087
 
Add another FBO Facility Photos Catering Weather Repair Courtesy Rental Type 100LL JetA JetA+ MOGAS 8087
Services Transportation Aviation Fuel Prices: Prices include tax
There are no FBO's currently reporting fuel at JKL. List your FBO now


model-print
model-print
model-print
model-print